sensor_id;sensor_type;location;lat;lon;timestamp;P1;durP1;ratioP1;P2;durP2;ratioP2
20855;SDS011;63058;49.424;8.420;2022-12-18T00:01:32;46.10;;;24.07;;
20855;SDS011;63058;49.424;8.420;2022-12-18T00:03:58;43.90;;;23.23;;
20855;SDS011;63058;49.424;8.420;2022-12-18T00:06:25;43.00;;;22.37;;
20855;SDS011;63058;49.424;8.420;2022-12-18T00:08:52;49.93;;;26.50;;
20855;SDS011;63058;49.424;8.420;2022-12-18T00:11:20;48.17;;;25.10;;
20855;SDS011;63058;49.424;8.420;2022-12-18T00:13:48;42.77;;;22.87;;
20855;SDS011;63058;49.424;8.420;2022-12-18T00:16:15;57.93;;;30.67;;
20855;SDS011;63058;49.424;8.420;2022-12-18T00:18:46;45.97;;;25.33;;
20855;SDS011;63058;49.424;8.420;2022-12-18T00:21:13;52.50;;;28.50;;
20855;SDS011;63058;49.424;8.420;2022-12-18T00:23:39;44.07;;;22.93;;
20855;SDS011;63058;49.424;8.420;2022-12-18T00:26:11;47.03;;;24.90;;
20855;SDS011;63058;49.424;8.420;2022-12-18T00:28:40;40.27;;;22.53;;
20855;SDS011;63058;49.424;8.420;2022-12-18T00:31:14;42.20;;;22.83;;
20855;SDS011;63058;49.424;8.420;2022-12-18T00:33:41;45.83;;;24.37;;
20855;SDS011;63058;49.424;8.420;2022-12-18T00:36:09;45.53;;;24.53;;
20855;SDS011;63058;49.424;8.420;2022-12-18T00:38:36;43.53;;;24.20;;
20855;SDS011;63058;49.424;8.420;2022-12-18T00:41:03;46.37;;;25.00;;
20855;SDS011;63058;49.424;8.420;2022-12-18T00:43:30;48.87;;;26.00;;
20855;SDS011;63058;49.424;8.420;2022-12-18T00:45:55;40.40;;;23.27;;
20855;SDS011;63058;49.424;8.420;2022-12-18T00:48:21;46.23;;;24.20;;
20855;SDS011;63058;49.424;8.420;2022-12-18T00:50:47;42.33;;;22.77;;
20855;SDS011;63058;49.424;8.420;2022-12-18T00:53:13;43.23;;;22.50;;
20855;SDS011;63058;49.424;8.420;2022-12-18T00:55:39;46.67;;;26.20;;
20855;SDS011;63058;49.424;8.420;2022-12-18T00:58:05;53.27;;;28.10;;
20855;SDS011;63058;49.424;8.420;2022-12-18T01:00:31;45.80;;;24.87;;
20855;SDS011;63058;49.424;8.420;2022-12-18T01:02:57;44.00;;;23.00;;
20855;SDS011;63058;49.424;8.420;2022-12-18T01:05:22;40.87;;;24.07;;
20855;SDS011;63058;49.424;8.420;2022-12-18T01:07:48;47.43;;;25.37;;
20855;SDS011;63058;49.424;8.420;2022-12-18T01:10:13;43.37;;;24.23;;
20855;SDS011;63058;49.424;8.420;2022-12-18T01:12:39;38.80;;;21.93;;
20855;SDS011;63058;49.424;8.420;2022-12-18T01:15:05;38.03;;;21.90;;
20855;SDS011;63058;49.424;8.420;2022-12-18T01:17:32;42.50;;;23.00;;
20855;SDS011;63058;49.424;8.420;2022-12-18T01:19:58;49.27;;;26.23;;
20855;SDS011;63058;49.424;8.420;2022-12-18T01:22:23;48.17;;;25.50;;
20855;SDS011;63058;49.424;8.420;2022-12-18T01:24:49;44.67;;;23.07;;
20855;SDS011;63058;49.424;8.420;2022-12-18T01:27:15;45.93;;;23.80;;
20855;SDS011;63058;49.424;8.420;2022-12-18T01:29:40;59.73;;;30.23;;
20855;SDS011;63058;49.424;8.420;2022-12-18T01:32:07;49.67;;;25.47;;
20855;SDS011;63058;49.424;8.420;2022-12-18T01:34:33;41.53;;;23.83;;
20855;SDS011;63058;49.424;8.420;2022-12-18T01:37:02;48.93;;;26.10;;
20855;SDS011;63058;49.424;8.420;2022-12-18T01:39:28;50.97;;;26.07;;
20855;SDS011;63058;49.424;8.420;2022-12-18T01:41:53;58.80;;;29.80;;
20855;SDS011;63058;49.424;8.420;2022-12-18T01:49:57;42.60;;;22.93;;
20855;SDS011;63058;49.424;8.420;2022-12-18T01:52:25;55.87;;;27.73;;
20855;SDS011;63058;49.424;8.420;2022-12-18T01:54:53;53.37;;;27.80;;
20855;SDS011;63058;49.424;8.420;2022-12-18T01:57:19;48.87;;;25.40;;
20855;SDS011;63058;49.424;8.420;2022-12-18T01:59:45;46.00;;;23.77;;
20855;SDS011;63058;49.424;8.420;2022-12-18T02:02:16;46.57;;;23.50;;
20855;SDS011;63058;49.424;8.420;2022-12-18T02:04:43;44.67;;;23.57;;
20855;SDS011;63058;49.424;8.420;2022-12-18T02:10:04;40.87;;;20.97;;
20855;SDS011;63058;49.424;8.420;2022-12-18T02:12:40;54.40;;;27.87;;
20855;SDS011;63058;49.424;8.420;2022-12-18T02:15:15;47.20;;;25.73;;
20855;SDS011;63058;49.424;8.420;2022-12-18T02:17:52;63.73;;;33.60;;
20855;SDS011;63058;49.424;8.420;2022-12-18T02:23:20;44.87;;;24.77;;
20855;SDS011;63058;49.424;8.420;2022-12-18T02:26:15;43.20;;;22.47;;
20855;SDS011;63058;49.424;8.420;2022-12-18T02:28:59;45.53;;;24.77;;
20855;SDS011;63058;49.424;8.420;2022-12-18T02:31:30;44.90;;;24.50;;
20855;SDS011;63058;49.424;8.420;2022-12-18T02:34:02;39.87;;;21.57;;
20855;SDS011;63058;49.424;8.420;2022-12-18T02:36:29;48.80;;;25.63;;
20855;SDS011;63058;49.424;8.420;2022-12-18T02:38:58;46.60;;;24.63;;
20855;SDS011;63058;49.424;8.420;2022-12-18T02:41:26;51.27;;;28.37;;
20855;SDS011;63058;49.424;8.420;2022-12-18T02:43:55;54.00;;;28.83;;
20855;SDS011;63058;49.424;8.420;2022-12-18T02:49:01;42.37;;;23.03;;
20855;SDS011;63058;49.424;8.420;2022-12-18T02:54:47;46.43;;;24.97;;
20855;SDS011;63058;49.424;8.420;2022-12-18T03:00:03;51.00;;;25.70;;
20855;SDS011;63058;49.424;8.420;2022-12-18T03:02:37;50.77;;;25.27;;
20855;SDS011;63058;49.424;8.420;2022-12-18T03:07:40;43.17;;;23.20;;
20855;SDS011;63058;49.424;8.420;2022-12-18T03:10:26;48.20;;;24.27;;
20855;SDS011;63058;49.424;8.420;2022-12-18T03:13:04;50.90;;;25.23;;
20855;SDS011;63058;49.424;8.420;2022-12-18T03:15:37;51.10;;;24.27;;
20855;SDS011;63058;49.424;8.420;2022-12-18T03:18:27;42.73;;;22.27;;
20855;SDS011;63058;49.424;8.420;2022-12-18T03:20:58;41.77;;;22.43;;
20855;SDS011;63058;49.424;8.420;2022-12-18T03:23:29;55.20;;;28.37;;
20855;SDS011;63058;49.424;8.420;2022-12-18T03:26:00;52.27;;;26.93;;
20855;SDS011;63058;49.424;8.420;2022-12-18T03:28:33;44.47;;;24.97;;
20855;SDS011;63058;49.424;8.420;2022-12-18T03:31:02;49.50;;;24.60;;
20855;SDS011;63058;49.424;8.420;2022-12-18T03:33:47;49.53;;;24.57;;
20855;SDS011;63058;49.424;8.420;2022-12-18T03:36:37;47.20;;;25.70;;
20855;SDS011;63058;49.424;8.420;2022-12-18T03:39:03;45.80;;;24.23;;
20855;SDS011;63058;49.424;8.420;2022-12-18T03:41:33;45.57;;;23.17;;
20855;SDS011;63058;49.424;8.420;2022-12-18T03:44:13;39.13;;;21.07;;
20855;SDS011;63058;49.424;8.420;2022-12-18T03:49:33;51.63;;;26.53;;
20855;SDS011;63058;49.424;8.420;2022-12-18T03:52:04;43.60;;;23.53;;
20855;SDS011;63058;49.424;8.420;2022-12-18T03:54:34;40.10;;;21.57;;
20855;SDS011;63058;49.424;8.420;2022-12-18T03:57:04;41.93;;;22.43;;
20855;SDS011;63058;49.424;8.420;2022-12-18T03:59:40;44.93;;;23.40;;
20855;SDS011;63058;49.424;8.420;2022-12-18T04:02:09;48.73;;;24.13;;
20855;SDS011;63058;49.424;8.420;2022-12-18T04:04:38;45.10;;;23.63;;
20855;SDS011;63058;49.424;8.420;2022-12-18T04:07:05;44.40;;;22.50;;
20855;SDS011;63058;49.424;8.420;2022-12-18T04:09:32;45.53;;;22.53;;
20855;SDS011;63058;49.424;8.420;2022-12-18T04:11:59;39.83;;;19.90;;
20855;SDS011;63058;49.424;8.420;2022-12-18T04:14:24;43.30;;;22.47;;
20855;SDS011;63058;49.424;8.420;2022-12-18T04:16:50;46.43;;;23.07;;
20855;SDS011;63058;49.424;8.420;2022-12-18T04:19:16;37.63;;;20.10;;
20855;SDS011;63058;49.424;8.420;2022-12-18T04:21:41;41.60;;;22.07;;
20855;SDS011;63058;49.424;8.420;2022-12-18T04:24:07;45.83;;;23.67;;
20855;SDS011;63058;49.424;8.420;2022-12-18T04:26:33;43.57;;;22.07;;
20855;SDS011;63058;49.424;8.420;2022-12-18T04:28:59;40.30;;;21.17;;
20855;SDS011;63058;49.424;8.420;2022-12-18T04:31:24;39.93;;;20.87;;
20855;SDS011;63058;49.424;8.420;2022-12-18T04:33:50;41.57;;;21.47;;
20855;SDS011;63058;49.424;8.420;2022-12-18T04:36:16;45.57;;;24.20;;
20855;SDS011;63058;49.424;8.420;2022-12-18T04:38:41;48.40;;;23.97;;
20855;SDS011;63058;49.424;8.420;2022-12-18T04:41:07;48.33;;;24.97;;
20855;SDS011;63058;49.424;8.420;2022-12-18T04:43:32;46.43;;;23.70;;
20855;SDS011;63058;49.424;8.420;2022-12-18T04:46:02;44.90;;;22.83;;
20855;SDS011;63058;49.424;8.420;2022-12-18T04:48:32;45.03;;;22.33;;
20855;SDS011;63058;49.424;8.420;2022-12-18T04:50:58;43.73;;;21.37;;
20855;SDS011;63058;49.424;8.420;2022-12-18T04:53:24;51.33;;;24.83;;
20855;SDS011;63058;49.424;8.420;2022-12-18T04:55:49;44.00;;;23.20;;
20855;SDS011;63058;49.424;8.420;2022-12-18T04:58:15;45.87;;;22.63;;
20855;SDS011;63058;49.424;8.420;2022-12-18T05:00:41;45.13;;;22.73;;
20855;SDS011;63058;49.424;8.420;2022-12-18T05:03:06;46.23;;;22.30;;
20855;SDS011;63058;49.424;8.420;2022-12-18T05:05:34;48.37;;;24.17;;
20855;SDS011;63058;49.424;8.420;2022-12-18T05:07:59;48.80;;;24.80;;
20855;SDS011;63058;49.424;8.420;2022-12-18T05:10:25;48.53;;;24.57;;
20855;SDS011;63058;49.424;8.420;2022-12-18T05:12:51;43.63;;;22.03;;
20855;SDS011;63058;49.424;8.420;2022-12-18T05:15:29;43.00;;;22.80;;
20855;SDS011;63058;49.424;8.420;2022-12-18T05:17:59;46.37;;;22.33;;
20855;SDS011;63058;49.424;8.420;2022-12-18T05:20:26;44.83;;;23.27;;
20855;SDS011;63058;49.424;8.420;2022-12-18T05:22:52;44.87;;;23.80;;
20855;SDS011;63058;49.424;8.420;2022-12-18T05:25:18;46.43;;;24.10;;
20855;SDS011;63058;49.424;8.420;2022-12-18T05:27:44;45.40;;;23.63;;
20855;SDS011;63058;49.424;8.420;2022-12-18T05:30:10;46.80;;;23.00;;
20855;SDS011;63058;49.424;8.420;2022-12-18T05:32:37;39.23;;;21.03;;
20855;SDS011;63058;49.424;8.420;2022-12-18T05:35:03;45.57;;;22.93;;
20855;SDS011;63058;49.424;8.420;2022-12-18T05:37:30;41.37;;;21.50;;
20855;SDS011;63058;49.424;8.420;2022-12-18T05:39:56;42.83;;;21.60;;
20855;SDS011;63058;49.424;8.420;2022-12-18T05:42:22;39.20;;;20.63;;
20855;SDS011;63058;49.424;8.420;2022-12-18T05:44:47;49.90;;;25.13;;
20855;SDS011;63058;49.424;8.420;2022-12-18T05:47:13;45.03;;;23.63;;
20855;SDS011;63058;49.424;8.420;2022-12-18T05:49:39;45.93;;;23.53;;
20855;SDS011;63058;49.424;8.420;2022-12-18T05:52:04;40.83;;;21.57;;
20855;SDS011;63058;49.424;8.420;2022-12-18T05:54:30;41.03;;;22.07;;
20855;SDS011;63058;49.424;8.420;2022-12-18T05:56:56;50.60;;;25.17;;
20855;SDS011;63058;49.424;8.420;2022-12-18T05:59:22;53.77;;;25.50;;
20855;SDS011;63058;49.424;8.420;2022-12-18T06:01:47;54.33;;;27.57;;
20855;SDS011;63058;49.424;8.420;2022-12-18T06:04:13;57.00;;;29.13;;
20855;SDS011;63058;49.424;8.420;2022-12-18T06:06:39;57.67;;;27.97;;
20855;SDS011;63058;49.424;8.420;2022-12-18T06:09:05;47.27;;;23.70;;
20855;SDS011;63058;49.424;8.420;2022-12-18T06:11:33;49.60;;;24.30;;
20855;SDS011;63058;49.424;8.420;2022-12-18T06:14:01;45.10;;;23.30;;
20855;SDS011;63058;49.424;8.420;2022-12-18T06:16:28;45.40;;;23.07;;
20855;SDS011;63058;49.424;8.420;2022-12-18T06:18:57;45.30;;;23.60;;
20855;SDS011;63058;49.424;8.420;2022-12-18T06:21:24;44.33;;;22.00;;
20855;SDS011;63058;49.424;8.420;2022-12-18T06:23:50;48.03;;;24.60;;
20855;SDS011;63058;49.424;8.420;2022-12-18T06:26:15;46.50;;;24.40;;
20855;SDS011;63058;49.424;8.420;2022-12-18T06:28:41;43.30;;;22.83;;
20855;SDS011;63058;49.424;8.420;2022-12-18T06:31:07;49.47;;;23.77;;
20855;SDS011;63058;49.424;8.420;2022-12-18T06:33:34;41.40;;;21.17;;
20855;SDS011;63058;49.424;8.420;2022-12-18T06:36:01;42.70;;;22.13;;
20855;SDS011;63058;49.424;8.420;2022-12-18T06:38:35;42.93;;;21.37;;
20855;SDS011;63058;49.424;8.420;2022-12-18T06:41:09;42.70;;;22.70;;
20855;SDS011;63058;49.424;8.420;2022-12-18T06:43:36;43.87;;;23.57;;
20855;SDS011;63058;49.424;8.420;2022-12-18T06:46:02;41.33;;;22.23;;
20855;SDS011;63058;49.424;8.420;2022-12-18T06:48:29;39.33;;;20.83;;
20855;SDS011;63058;49.424;8.420;2022-12-18T06:50:55;45.83;;;22.43;;
20855;SDS011;63058;49.424;8.420;2022-12-18T06:53:20;42.90;;;21.87;;
20855;SDS011;63058;49.424;8.420;2022-12-18T06:55:47;44.97;;;22.93;;
20855;SDS011;63058;49.424;8.420;2022-12-18T06:58:12;44.63;;;21.63;;
20855;SDS011;63058;49.424;8.420;2022-12-18T07:00:38;40.63;;;21.50;;
20855;SDS011;63058;49.424;8.420;2022-12-18T07:03:04;40.93;;;22.27;;
20855;SDS011;63058;49.424;8.420;2022-12-18T07:05:30;40.00;;;21.83;;
20855;SDS011;63058;49.424;8.420;2022-12-18T07:07:56;40.20;;;22.53;;
20855;SDS011;63058;49.424;8.420;2022-12-18T07:10:22;41.03;;;22.07;;
20855;SDS011;63058;49.424;8.420;2022-12-18T07:12:48;39.47;;;20.50;;
20855;SDS011;63058;49.424;8.420;2022-12-18T07:15:13;42.70;;;23.23;;
20855;SDS011;63058;49.424;8.420;2022-12-18T07:17:39;42.93;;;23.30;;
20855;SDS011;63058;49.424;8.420;2022-12-18T07:20:05;43.30;;;22.47;;
20855;SDS011;63058;49.424;8.420;2022-12-18T07:22:31;41.07;;;22.57;;
20855;SDS011;63058;49.424;8.420;2022-12-18T07:24:56;41.30;;;22.23;;
20855;SDS011;63058;49.424;8.420;2022-12-18T07:27:22;42.73;;;21.60;;
20855;SDS011;63058;49.424;8.420;2022-12-18T07:29:48;40.40;;;21.03;;
20855;SDS011;63058;49.424;8.420;2022-12-18T07:32:13;36.80;;;20.10;;
20855;SDS011;63058;49.424;8.420;2022-12-18T07:34:39;41.47;;;21.37;;
20855;SDS011;63058;49.424;8.420;2022-12-18T07:37:05;45.23;;;24.60;;
20855;SDS011;63058;49.424;8.420;2022-12-18T07:39:30;43.33;;;22.70;;
20855;SDS011;63058;49.424;8.420;2022-12-18T07:41:56;40.87;;;20.73;;
20855;SDS011;63058;49.424;8.420;2022-12-18T07:44:40;41.43;;;21.27;;
20855;SDS011;63058;49.424;8.420;2022-12-18T07:47:06;43.33;;;22.80;;
20855;SDS011;63058;49.424;8.420;2022-12-18T07:49:32;44.57;;;22.30;;
20855;SDS011;63058;49.424;8.420;2022-12-18T07:51:57;44.73;;;23.87;;
20855;SDS011;63058;49.424;8.420;2022-12-18T07:54:23;43.43;;;22.67;;
20855;SDS011;63058;49.424;8.420;2022-12-18T07:56:49;45.90;;;22.40;;
20855;SDS011;63058;49.424;8.420;2022-12-18T07:59:15;42.80;;;22.27;;
20855;SDS011;63058;49.424;8.420;2022-12-18T08:01:41;43.13;;;22.77;;
20855;SDS011;63058;49.424;8.420;2022-12-18T08:04:07;45.07;;;23.57;;
20855;SDS011;63058;49.424;8.420;2022-12-18T08:06:32;42.80;;;21.87;;
20855;SDS011;63058;49.424;8.420;2022-12-18T08:08:58;46.00;;;23.40;;
20855;SDS011;63058;49.424;8.420;2022-12-18T08:11:24;41.27;;;21.70;;
20855;SDS011;63058;49.424;8.420;2022-12-18T08:13:51;40.90;;;22.23;;
20855;SDS011;63058;49.424;8.420;2022-12-18T08:16:17;44.57;;;23.13;;
20855;SDS011;63058;49.424;8.420;2022-12-18T08:18:44;42.93;;;22.43;;
20855;SDS011;63058;49.424;8.420;2022-12-18T08:21:13;47.00;;;23.87;;
20855;SDS011;63058;49.424;8.420;2022-12-18T08:23:48;45.03;;;24.30;;
20855;SDS011;63058;49.424;8.420;2022-12-18T08:26:14;46.67;;;23.60;;
20855;SDS011;63058;49.424;8.420;2022-12-18T08:28:40;42.60;;;23.07;;
20855;SDS011;63058;49.424;8.420;2022-12-18T08:31:07;46.17;;;24.87;;
20855;SDS011;63058;49.424;8.420;2022-12-18T08:33:33;48.27;;;24.77;;
20855;SDS011;63058;49.424;8.420;2022-12-18T08:35:59;44.43;;;23.33;;
20855;SDS011;63058;49.424;8.420;2022-12-18T08:38:25;42.57;;;21.73;;
20855;SDS011;63058;49.424;8.420;2022-12-18T08:41:02;46.40;;;23.83;;
20855;SDS011;63058;49.424;8.420;2022-12-18T08:43:29;45.40;;;23.70;;
20855;SDS011;63058;49.424;8.420;2022-12-18T08:46:16;42.77;;;22.30;;
20855;SDS011;63058;49.424;8.420;2022-12-18T08:48:45;44.17;;;22.47;;
20855;SDS011;63058;49.424;8.420;2022-12-18T08:51:11;45.50;;;23.07;;
20855;SDS011;63058;49.424;8.420;2022-12-18T08:53:37;42.07;;;21.97;;
20855;SDS011;63058;49.424;8.420;2022-12-18T08:56:03;46.13;;;25.00;;
20855;SDS011;63058;49.424;8.420;2022-12-18T08:58:29;44.47;;;23.40;;
20855;SDS011;63058;49.424;8.420;2022-12-18T09:00:59;41.93;;;23.27;;
20855;SDS011;63058;49.424;8.420;2022-12-18T09:03:29;43.70;;;23.73;;
20855;SDS011;63058;49.424;8.420;2022-12-18T09:05:54;44.30;;;24.33;;
20855;SDS011;63058;49.424;8.420;2022-12-18T09:08:20;45.10;;;23.07;;
20855;SDS011;63058;49.424;8.420;2022-12-18T09:10:46;42.77;;;23.53;;
20855;SDS011;63058;49.424;8.420;2022-12-18T09:13:13;41.83;;;23.33;;
20855;SDS011;63058;49.424;8.420;2022-12-18T09:15:50;41.80;;;22.70;;
20855;SDS011;63058;49.424;8.420;2022-12-18T09:18:17;44.70;;;23.77;;
20855;SDS011;63058;49.424;8.420;2022-12-18T09:20:44;42.60;;;22.97;;
20855;SDS011;63058;49.424;8.420;2022-12-18T09:23:10;40.00;;;22.40;;
20855;SDS011;63058;49.424;8.420;2022-12-18T09:25:36;40.17;;;22.00;;
20855;SDS011;63058;49.424;8.420;2022-12-18T09:28:03;39.10;;;22.57;;
20855;SDS011;63058;49.424;8.420;2022-12-18T09:30:37;42.20;;;22.60;;
20855;SDS011;63058;49.424;8.420;2022-12-18T09:33:03;42.60;;;24.17;;
20855;SDS011;63058;49.424;8.420;2022-12-18T09:35:29;41.33;;;22.80;;
20855;SDS011;63058;49.424;8.420;2022-12-18T09:37:55;43.53;;;24.80;;
20855;SDS011;63058;49.424;8.420;2022-12-18T09:40:22;41.53;;;23.43;;
20855;SDS011;63058;49.424;8.420;2022-12-18T09:42:53;41.37;;;23.63;;
20855;SDS011;63058;49.424;8.420;2022-12-18T09:45:22;46.53;;;24.80;;
20855;SDS011;63058;49.424;8.420;2022-12-18T09:47:49;43.30;;;24.53;;
20855;SDS011;63058;49.424;8.420;2022-12-18T09:50:22;43.03;;;24.90;;
20855;SDS011;63058;49.424;8.420;2022-12-18T09:52:54;39.97;;;23.63;;
20855;SDS011;63058;49.424;8.420;2022-12-18T09:55:34;39.20;;;23.37;;
20855;SDS011;63058;49.424;8.420;2022-12-18T09:58:06;38.97;;;23.47;;
20855;SDS011;63058;49.424;8.420;2022-12-18T10:00:52;37.47;;;22.33;;
20855;SDS011;63058;49.424;8.420;2022-12-18T10:03:18;38.70;;;23.33;;
20855;SDS011;63058;49.424;8.420;2022-12-18T10:08:18;44.37;;;26.07;;
20855;SDS011;63058;49.424;8.420;2022-12-18T10:11:12;38.27;;;22.60;;
20855;SDS011;63058;49.424;8.420;2022-12-18T10:14:07;35.80;;;21.10;;
20855;SDS011;63058;49.424;8.420;2022-12-18T10:16:56;40.73;;;24.67;;
20855;SDS011;63058;49.424;8.420;2022-12-18T10:19:43;35.80;;;22.20;;
20855;SDS011;63058;49.424;8.420;2022-12-18T10:28:11;31.20;;;18.53;;
20855;SDS011;63058;49.424;8.420;2022-12-18T10:30:39;28.20;;;17.23;;
20855;SDS011;63058;49.424;8.420;2022-12-18T10:33:08;31.83;;;19.30;;
20855;SDS011;63058;49.424;8.420;2022-12-18T10:35:44;31.73;;;20.13;;
20855;SDS011;63058;49.424;8.420;2022-12-18T10:40:51;33.87;;;20.53;;
20855;SDS011;63058;49.424;8.420;2022-12-18T10:43:33;32.97;;;20.53;;
20855;SDS011;63058;49.424;8.420;2022-12-18T10:46:02;29.70;;;19.40;;
20855;SDS011;63058;49.424;8.420;2022-12-18T10:48:35;30.53;;;19.70;;
20855;SDS011;63058;49.424;8.420;2022-12-18T10:51:19;31.37;;;18.63;;
20855;SDS011;63058;49.424;8.420;2022-12-18T10:54:06;30.13;;;18.93;;
20855;SDS011;63058;49.424;8.420;2022-12-18T10:56:38;31.37;;;18.47;;
20855;SDS011;63058;49.424;8.420;2022-12-18T10:59:04;30.90;;;19.90;;
20855;SDS011;63058;49.424;8.420;2022-12-18T11:02:23;28.30;;;17.40;;
20855;SDS011;63058;49.424;8.420;2022-12-18T11:04:24;30.37;;;18.37;;
20855;SDS011;63058;49.424;8.420;2022-12-18T11:07:03;31.23;;;18.83;;
20855;SDS011;63058;49.424;8.420;2022-12-18T11:09:34;33.13;;;20.00;;
20855;SDS011;63058;49.424;8.420;2022-12-18T11:12:04;32.57;;;20.83;;
20855;SDS011;63058;49.424;8.420;2022-12-18T11:14:52;30.97;;;19.57;;
20855;SDS011;63058;49.424;8.420;2022-12-18T11:17:23;33.00;;;21.03;;
20855;SDS011;63058;49.424;8.420;2022-12-18T11:19:58;31.10;;;19.17;;
20855;SDS011;63058;49.424;8.420;2022-12-18T11:22:33;29.97;;;19.87;;
20855;SDS011;63058;49.424;8.420;2022-12-18T11:27:29;29.93;;;19.37;;
20855;SDS011;63058;49.424;8.420;2022-12-18T11:30:07;33.57;;;19.80;;
20855;SDS011;63058;49.424;8.420;2022-12-18T11:33:27;31.83;;;19.50;;
20855;SDS011;63058;49.424;8.420;2022-12-18T11:35:46;30.33;;;18.77;;
20855;SDS011;63058;49.424;8.420;2022-12-18T11:44:22;28.00;;;17.40;;
20855;SDS011;63058;49.424;8.420;2022-12-18T11:46:59;37.90;;;22.20;;
20855;SDS011;63058;49.424;8.420;2022-12-18T11:49:37;35.67;;;21.17;;
20855;SDS011;63058;49.424;8.420;2022-12-18T11:52:19;33.23;;;20.43;;
20855;SDS011;63058;49.424;8.420;2022-12-18T11:54:52;33.10;;;20.03;;
20855;SDS011;63058;49.424;8.420;2022-12-18T11:57:35;30.90;;;20.40;;
20855;SDS011;63058;49.424;8.420;2022-12-18T12:00:22;31.37;;;19.00;;
20855;SDS011;63058;49.424;8.420;2022-12-18T12:03:07;29.83;;;18.43;;
20855;SDS011;63058;49.424;8.420;2022-12-18T12:06:56;32.97;;;19.80;;
20855;SDS011;63058;49.424;8.420;2022-12-18T12:15:13;34.83;;;21.17;;
20855;SDS011;63058;49.424;8.420;2022-12-18T12:22:59;34.60;;;21.57;;
20855;SDS011;63058;49.424;8.420;2022-12-18T12:25:41;31.87;;;20.27;;
20855;SDS011;63058;49.424;8.420;2022-12-18T12:31:04;29.43;;;17.63;;
20855;SDS011;63058;49.424;8.420;2022-12-18T12:33:48;29.67;;;18.27;;
20855;SDS011;63058;49.424;8.420;2022-12-18T12:39:19;32.23;;;19.37;;
20855;SDS011;63058;49.424;8.420;2022-12-18T12:41:48;33.53;;;19.60;;
20855;SDS011;63058;49.424;8.420;2022-12-18T12:44:39;31.50;;;20.90;;
20855;SDS011;63058;49.424;8.420;2022-12-18T12:47:13;32.07;;;20.03;;
20855;SDS011;63058;49.424;8.420;2022-12-18T12:49:44;34.97;;;20.23;;
20855;SDS011;63058;49.424;8.420;2022-12-18T12:52:15;33.70;;;20.20;;
20855;SDS011;63058;49.424;8.420;2022-12-18T12:54:46;35.80;;;21.83;;
20855;SDS011;63058;49.424;8.420;2022-12-18T13:00:15;34.77;;;19.87;;
20855;SDS011;63058;49.424;8.420;2022-12-18T13:02:57;32.53;;;19.77;;
20855;SDS011;63058;49.424;8.420;2022-12-18T13:08:04;34.53;;;21.03;;
20855;SDS011;63058;49.424;8.420;2022-12-18T13:10:39;38.10;;;22.50;;
20855;SDS011;63058;49.424;8.420;2022-12-18T13:20:37;38.30;;;22.07;;
20855;SDS011;63058;49.424;8.420;2022-12-18T13:25:55;34.60;;;20.20;;
20855;SDS011;63058;49.424;8.420;2022-12-18T13:31:10;34.40;;;21.10;;
20855;SDS011;63058;49.424;8.420;2022-12-18T13:33:37;35.93;;;22.07;;
20855;SDS011;63058;49.424;8.420;2022-12-18T13:41:40;31.60;;;19.63;;
20855;SDS011;63058;49.424;8.420;2022-12-18T13:44:21;33.50;;;21.07;;
20855;SDS011;63058;49.424;8.420;2022-12-18T13:46:59;32.43;;;19.73;;
20855;SDS011;63058;49.424;8.420;2022-12-18T13:54:50;35.23;;;21.13;;
20855;SDS011;63058;49.424;8.420;2022-12-18T13:57:28;36.87;;;22.10;;
20855;SDS011;63058;49.424;8.420;2022-12-18T13:59:56;34.13;;;20.20;;
20855;SDS011;63058;49.424;8.420;2022-12-18T14:02:24;31.03;;;20.00;;
20855;SDS011;63058;49.424;8.420;2022-12-18T14:04:51;33.00;;;19.70;;
20855;SDS011;63058;49.424;8.420;2022-12-18T14:07:21;33.57;;;19.57;;
20855;SDS011;63058;49.424;8.420;2022-12-18T14:09:51;35.60;;;21.50;;
20855;SDS011;63058;49.424;8.420;2022-12-18T14:12:25;32.70;;;20.27;;
20855;SDS011;63058;49.424;8.420;2022-12-18T14:15:33;33.43;;;19.60;;
20855;SDS011;63058;49.424;8.420;2022-12-18T14:17:59;33.13;;;19.93;;
20855;SDS011;63058;49.424;8.420;2022-12-18T14:20:43;34.37;;;19.67;;
20855;SDS011;63058;49.424;8.420;2022-12-18T14:23:29;35.27;;;20.93;;
20855;SDS011;63058;49.424;8.420;2022-12-18T14:25:58;35.97;;;21.80;;
20855;SDS011;63058;49.424;8.420;2022-12-18T14:28:25;33.37;;;19.87;;
20855;SDS011;63058;49.424;8.420;2022-12-18T14:30:51;32.50;;;19.97;;
20855;SDS011;63058;49.424;8.420;2022-12-18T14:33:19;35.07;;;19.87;;
20855;SDS011;63058;49.424;8.420;2022-12-18T14:35:57;31.17;;;19.60;;
20855;SDS011;63058;49.424;8.420;2022-12-18T14:40:55;33.37;;;20.80;;
20855;SDS011;63058;49.424;8.420;2022-12-18T14:43:40;34.10;;;20.27;;
20855;SDS011;63058;49.424;8.420;2022-12-18T14:46:25;35.80;;;21.27;;
20855;SDS011;63058;49.424;8.420;2022-12-18T14:52:05;34.13;;;20.30;;
20855;SDS011;63058;49.424;8.420;2022-12-18T14:54:45;33.53;;;20.37;;
20855;SDS011;63058;49.424;8.420;2022-12-18T14:59:46;34.07;;;19.20;;
20855;SDS011;63058;49.424;8.420;2022-12-18T15:04:48;33.40;;;20.63;;
20855;SDS011;63058;49.424;8.420;2022-12-18T15:07:45;30.97;;;19.40;;
20855;SDS011;63058;49.424;8.420;2022-12-18T15:10:14;37.10;;;20.70;;
20855;SDS011;63058;49.424;8.420;2022-12-18T15:13:27;35.23;;;19.13;;
20855;SDS011;63058;49.424;8.420;2022-12-18T15:15:43;34.47;;;20.77;;
20855;SDS011;63058;49.424;8.420;2022-12-18T15:18:11;33.67;;;19.70;;
20855;SDS011;63058;49.424;8.420;2022-12-18T15:25:54;33.60;;;20.40;;
20855;SDS011;63058;49.424;8.420;2022-12-18T15:28:44;32.00;;;19.03;;
20855;SDS011;63058;49.424;8.420;2022-12-18T15:31:28;34.60;;;19.73;;
20855;SDS011;63058;49.424;8.420;2022-12-18T15:36:22;32.37;;;19.73;;
20855;SDS011;63058;49.424;8.420;2022-12-18T15:38:50;35.07;;;20.50;;
20855;SDS011;63058;49.424;8.420;2022-12-18T15:41:19;32.13;;;20.43;;
20855;SDS011;63058;49.424;8.420;2022-12-18T15:43:49;33.80;;;19.83;;
20855;SDS011;63058;49.424;8.420;2022-12-18T15:48:46;32.93;;;19.53;;
20855;SDS011;63058;49.424;8.420;2022-12-18T15:51:28;32.40;;;19.40;;
20855;SDS011;63058;49.424;8.420;2022-12-18T15:53:59;34.73;;;20.20;;
20855;SDS011;63058;49.424;8.420;2022-12-18T15:56:28;35.27;;;20.13;;
20855;SDS011;63058;49.424;8.420;2022-12-18T15:59:17;34.97;;;19.97;;
20855;SDS011;63058;49.424;8.420;2022-12-18T16:01:51;35.17;;;20.27;;
20855;SDS011;63058;49.424;8.420;2022-12-18T16:04:20;35.07;;;20.77;;
20855;SDS011;63058;49.424;8.420;2022-12-18T16:06:47;35.23;;;20.50;;
20855;SDS011;63058;49.424;8.420;2022-12-18T16:09:14;37.50;;;20.87;;
20855;SDS011;63058;49.424;8.420;2022-12-18T16:11:41;37.17;;;22.20;;
20855;SDS011;63058;49.424;8.420;2022-12-18T16:16:36;38.43;;;22.03;;
20855;SDS011;63058;49.424;8.420;2022-12-18T16:19:01;38.50;;;22.67;;
20855;SDS011;63058;49.424;8.420;2022-12-18T16:21:27;39.33;;;23.07;;
20855;SDS011;63058;49.424;8.420;2022-12-18T16:23:53;38.20;;;23.53;;
20855;SDS011;63058;49.424;8.420;2022-12-18T16:26:18;37.93;;;24.27;;
20855;SDS011;63058;49.424;8.420;2022-12-18T16:28:44;44.37;;;25.93;;
20855;SDS011;63058;49.424;8.420;2022-12-18T16:31:10;40.03;;;25.07;;
20855;SDS011;63058;49.424;8.420;2022-12-18T16:33:36;37.83;;;23.23;;
20855;SDS011;63058;49.424;8.420;2022-12-18T16:36:01;36.63;;;22.40;;